sensor_id;sensor_type;location;lat;lon;timestamp;pressure;altitude;pressure_sealevel;temperature;humidity
74627;BME280;63132;52.268;5.192;2023-10-19T00:00:47;99049.84;;;24.62;40.68
74627;BME280;63132;52.268;5.192;2023-10-19T00:03:18;99047.28;;;24.98;38.35
74627;BME280;63132;52.268;5.192;2023-10-19T00:05:44;99041.53;;;24.77;39.07
74627;BME280;63132;52.268;5.192;2023-10-19T00:08:12;99054.69;;;24.88;39.29
74627;BME280;63132;52.268;5.192;2023-10-19T00:10:42;99048.78;;;26.22;37.15
74627;BME280;63132;52.268;5.192;2023-10-19T00:13:12;99039.94;;;25.84;37.35
74627;BME280;63132;52.268;5.192;2023-10-19T00:15:40;99029.66;;;25.94;36.85
74627;BME280;63132;52.268;5.192;2023-10-19T00:18:07;99037.31;;;26.07;36.76
74627;BME280;63132;52.268;5.192;2023-10-19T00:20:49;99034.03;;;26.23;37.59
74627;BME280;63132;52.268;5.192;2023-10-19T00:23:15;99037.13;;;26.90;35.73
74627;BME280;63132;52.268;5.192;2023-10-19T00:25:44;99030.66;;;25.42;38.24
74627;BME280;63132;52.268;5.192;2023-10-19T00:28:09;99032.91;;;26.47;36.10
74627;BME280;63132;52.268;5.192;2023-10-19T00:30:37;99024.19;;;25.96;36.88
74627;BME280;63132;52.268;5.192;2023-10-19T00:33:03;99027.44;;;25.79;37.42
74627;BME280;63132;52.268;5.192;2023-10-19T00:35:41;99031.88;;;26.66;36.61
74627;BME280;63132;52.268;5.192;2023-10-19T00:38:29;99031.25;;;25.82;37.17
74627;BME280;63132;52.268;5.192;2023-10-19T00:40:54;99024.22;;;26.25;37.26
74627;BME280;63132;52.268;5.192;2023-10-19T00:43:41;99017.78;;;26.24;36.57
74627;BME280;63132;52.268;5.192;2023-10-19T00:46:12;99021.03;;;26.57;36.73
74627;BME280;63132;52.268;5.192;2023-10-19T00:49:05;99025.97;;;26.07;38.71
74627;BME280;63132;52.268;5.192;2023-10-19T00:51:33;99023.59;;;26.75;35.92
74627;BME280;63132;52.268;5.192;2023-10-19T00:54:10;99014.47;;;25.16;40.85
74627;BME280;63132;52.268;5.192;2023-10-19T00:56:46;99013.91;;;26.14;37.23
74627;BME280;63132;52.268;5.192;2023-10-19T00:59:15;99015.41;;;26.64;36.28
74627;BME280;63132;52.268;5.192;2023-10-19T01:01:56;99011.75;;;26.92;36.03
74627;BME280;63132;52.268;5.192;2023-10-19T01:04:41;99011.78;;;26.64;36.41
74627;BME280;63132;52.268;5.192;2023-10-19T01:07:08;99003.53;;;27.25;35.66
74627;BME280;63132;52.268;5.192;2023-10-19T01:09:37;98999.81;;;27.45;35.29
74627;BME280;63132;52.268;5.192;2023-10-19T01:12:04;99009.78;;;26.80;35.71
74627;BME280;63132;52.268;5.192;2023-10-19T01:17:33;99003.53;;;26.81;35.60
74627;BME280;63132;52.268;5.192;2023-10-19T01:20:03;99004.91;;;27.54;36.20
74627;BME280;63132;52.268;5.192;2023-10-19T01:22:37;99001.00;;;27.96;34.65
74627;BME280;63132;52.268;5.192;2023-10-19T01:25:03;98998.75;;;27.79;35.10
74627;BME280;63132;52.268;5.192;2023-10-19T01:27:28;99007.00;;;27.46;35.48
74627;BME280;63132;52.268;5.192;2023-10-19T01:29:54;99000.75;;;27.48;35.36
74627;BME280;63132;52.268;5.192;2023-10-19T01:32:21;98993.59;;;27.03;36.66
74627;BME280;63132;52.268;5.192;2023-10-19T01:34:48;98990.53;;;27.52;35.38
74627;BME280;63132;52.268;5.192;2023-10-19T01:37:13;98994.69;;;27.51;35.95
74627;BME280;63132;52.268;5.192;2023-10-19T01:39:38;98990.34;;;26.27;38.79
74627;BME280;63132;52.268;5.192;2023-10-19T01:42:06;98985.06;;;27.70;37.96
74627;BME280;63132;52.268;5.192;2023-10-19T01:44:33;98990.72;;;26.52;37.95
74627;BME280;63132;52.268;5.192;2023-10-19T01:47:01;98977.47;;;27.57;36.56
74627;BME280;63132;52.268;5.192;2023-10-19T01:49:26;98981.06;;;28.11;36.16
74627;BME280;63132;52.268;5.192;2023-10-19T01:51:52;98985.59;;;28.22;35.59
74627;BME280;63132;52.268;5.192;2023-10-19T01:54:18;98984.31;;;27.84;35.82
74627;BME280;63132;52.268;5.192;2023-10-19T01:56:48;98975.22;;;28.01;35.65
74627;BME280;63132;52.268;5.192;2023-10-19T01:59:15;98980.81;;;28.55;34.28
74627;BME280;63132;52.268;5.192;2023-10-19T02:01:41;98972.66;;;28.51;35.46
74627;BME280;63132;52.268;5.192;2023-10-19T02:04:09;98972.91;;;28.86;34.34
74627;BME280;63132;52.268;5.192;2023-10-19T02:06:37;98967.06;;;27.90;37.77
74627;BME280;63132;52.268;5.192;2023-10-19T02:09:04;98970.84;;;28.79;35.08
74627;BME280;63132;52.268;5.192;2023-10-19T02:11:42;98971.19;;;28.98;34.61
74627;BME280;63132;52.268;5.192;2023-10-19T02:14:10;98964.34;;;28.38;35.76
74627;BME280;63132;52.268;5.192;2023-10-19T02:16:44;98956.97;;;28.20;35.20
74627;BME280;63132;52.268;5.192;2023-10-19T02:19:12;98968.00;;;28.79;35.48
74627;BME280;63132;52.268;5.192;2023-10-19T02:21:37;98972.06;;;29.41;33.83
74627;BME280;63132;52.268;5.192;2023-10-19T02:24:09;98974.03;;;29.31;34.41
74627;BME280;63132;52.268;5.192;2023-10-19T02:26:34;98966.06;;;29.29;37.17
74627;BME280;63132;52.268;5.192;2023-10-19T02:29:00;98969.56;;;29.45;35.13
74627;BME280;63132;52.268;5.192;2023-10-19T02:31:26;98969.47;;;29.85;34.45
74627;BME280;63132;52.268;5.192;2023-10-19T02:33:52;98964.88;;;29.90;34.92
74627;BME280;63132;52.268;5.192;2023-10-19T02:36:23;98955.75;;;29.66;35.17
74627;BME280;63132;52.268;5.192;2023-10-19T02:38:48;98963.16;;;29.37;37.20
74627;BME280;63132;52.268;5.192;2023-10-19T02:41:17;98955.25;;;30.02;33.55
74627;BME280;63132;52.268;5.192;2023-10-19T02:43:44;98964.91;;;30.24;33.36
74627;BME280;63132;52.268;5.192;2023-10-19T02:46:12;98959.06;;;30.40;33.21
74627;BME280;63132;52.268;5.192;2023-10-19T02:48:38;98949.72;;;30.56;33.64
74627;BME280;63132;52.268;5.192;2023-10-19T02:51:03;98951.66;;;30.54;33.71
74627;BME280;63132;52.268;5.192;2023-10-19T02:53:35;98949.25;;;30.08;34.85
74627;BME280;63132;52.268;5.192;2023-10-19T02:56:08;98957.06;;;30.32;33.89
74627;BME280;63132;52.268;5.192;2023-10-19T02:58:34;98958.56;;;30.33;35.46
74627;BME280;63132;52.268;5.192;2023-10-19T03:01:00;98950.81;;;30.61;34.14
74627;BME280;63132;52.268;5.192;2023-10-19T03:03:25;98952.88;;;30.95;33.59
74627;BME280;63132;52.268;5.192;2023-10-19T03:05:50;98950.78;;;30.96;34.05
74627;BME280;63132;52.268;5.192;2023-10-19T03:08:16;98941.13;;;30.91;34.96
74627;BME280;63132;52.268;5.192;2023-10-19T03:10:44;98943.34;;;31.10;33.42
74627;BME280;63132;52.268;5.192;2023-10-19T03:13:09;98948.19;;;31.17;33.04
74627;BME280;63132;52.268;5.192;2023-10-19T03:15:34;98949.94;;;31.03;34.17
74627;BME280;63132;52.268;5.192;2023-10-19T03:18:00;98943.69;;;31.14;33.64
74627;BME280;63132;52.268;5.192;2023-10-19T03:20:27;98937.84;;;31.22;32.66
74627;BME280;63132;52.268;5.192;2023-10-19T03:22:52;98937.47;;;31.08;32.31
74627;BME280;63132;52.268;5.192;2023-10-19T03:25:17;98944.44;;;31.41;33.16
74627;BME280;63132;52.268;5.192;2023-10-19T03:28:01;98934.28;;;31.04;33.80
74627;BME280;63132;52.268;5.192;2023-10-19T03:30:36;98934.69;;;30.73;34.07
74627;BME280;63132;52.268;5.192;2023-10-19T03:33:04;98936.28;;;30.67;34.72
74627;BME280;63132;52.268;5.192;2023-10-19T03:35:29;98935.69;;;30.85;34.38
74627;BME280;63132;52.268;5.192;2023-10-19T03:37:55;98936.75;;;30.90;34.03
74627;BME280;63132;52.268;5.192;2023-10-19T03:40:23;98932.00;;;30.75;34.29
74627;BME280;63132;52.268;5.192;2023-10-19T03:42:57;98935.09;;;30.52;35.09
74627;BME280;63132;52.268;5.192;2023-10-19T03:45:23;98930.75;;;30.51;34.45
74627;BME280;63132;52.268;5.192;2023-10-19T03:47:50;98927.75;;;30.94;34.52
74627;BME280;63132;52.268;5.192;2023-10-19T03:50:15;98925.28;;;30.28;37.60
74627;BME280;63132;52.268;5.192;2023-10-19T03:52:45;98922.91;;;30.86;35.60
74627;BME280;63132;52.268;5.192;2023-10-19T03:55:10;98925.63;;;31.21;33.98
74627;BME280;63132;52.268;5.192;2023-10-19T03:57:44;98925.88;;;31.33;33.37
74627;BME280;63132;52.268;5.192;2023-10-19T04:00:15;98921.00;;;30.99;33.92
74627;BME280;63132;52.268;5.192;2023-10-19T04:02:41;98919.13;;;31.11;34.01
74627;BME280;63132;52.268;5.192;2023-10-19T04:05:07;98907.84;;;30.86;35.17
74627;BME280;63132;52.268;5.192;2023-10-19T04:07:35;98916.50;;;31.23;33.73
74627;BME280;63132;52.268;5.192;2023-10-19T04:10:00;98907.22;;;31.32;32.95
74627;BME280;63132;52.268;5.192;2023-10-19T04:12:31;98912.03;;;31.12;33.62
74627;BME280;63132;52.268;5.192;2023-10-19T04:14:56;98913.25;;;31.09;33.96
74627;BME280;63132;52.268;5.192;2023-10-19T04:17:22;98912.81;;;30.85;33.54
74627;BME280;63132;52.268;5.192;2023-10-19T04:19:48;98921.22;;;30.83;34.09
74627;BME280;63132;52.268;5.192;2023-10-19T04:22:14;98916.16;;;30.92;33.34
74627;BME280;63132;52.268;5.192;2023-10-19T04:24:47;98917.53;;;30.73;33.78
74627;BME280;63132;52.268;5.192;2023-10-19T04:27:12;98908.91;;;30.91;32.61
74627;BME280;63132;52.268;5.192;2023-10-19T04:29:38;98922.66;;;30.75;32.96
74627;BME280;63132;52.268;5.192;2023-10-19T04:32:05;98919.56;;;31.07;32.98
74627;BME280;63132;52.268;5.192;2023-10-19T04:34:32;98931.19;;;31.36;32.17
74627;BME280;63132;52.268;5.192;2023-10-19T04:36:57;98924.13;;;31.20;31.81
74627;BME280;63132;52.268;5.192;2023-10-19T04:39:22;98924.16;;;30.93;32.77
74627;BME280;63132;52.268;5.192;2023-10-19T04:41:47;98914.09;;;30.57;33.66
74627;BME280;63132;52.268;5.192;2023-10-19T04:44:14;98917.72;;;30.58;33.26
74627;BME280;63132;52.268;5.192;2023-10-19T04:46:40;98920.56;;;30.75;32.90
74627;BME280;63132;52.268;5.192;2023-10-19T04:49:05;98917.72;;;30.58;33.59
74627;BME280;63132;52.268;5.192;2023-10-19T04:51:31;98919.66;;;30.73;32.62
74627;BME280;63132;52.268;5.192;2023-10-19T04:53:56;98910.59;;;30.67;33.73
74627;BME280;63132;52.268;5.192;2023-10-19T04:56:21;98920.31;;;30.81;32.74
74627;BME280;63132;52.268;5.192;2023-10-19T04:58:47;98921.66;;;30.80;33.21
74627;BME280;63132;52.268;5.192;2023-10-19T05:01:12;98930.13;;;31.14;32.96
74627;BME280;63132;52.268;5.192;2023-10-19T05:03:37;98918.41;;;31.20;31.80
74627;BME280;63132;52.268;5.192;2023-10-19T05:06:03;98922.97;;;31.23;32.04
74627;BME280;63132;52.268;5.192;2023-10-19T05:08:28;98926.97;;;31.20;32.49
74627;BME280;63132;52.268;5.192;2023-10-19T05:10:54;98924.22;;;31.30;32.70
74627;BME280;63132;52.268;5.192;2023-10-19T05:13:26;98925.50;;;31.56;32.42
74627;BME280;63132;52.268;5.192;2023-10-19T05:15:52;98928.50;;;31.21;32.14
74627;BME280;63132;52.268;5.192;2023-10-19T05:18:18;98928.63;;;31.40;32.33
74627;BME280;63132;52.268;5.192;2023-10-19T05:20:44;98939.69;;;31.27;32.47
74627;BME280;63132;52.268;5.192;2023-10-19T05:23:11;98931.25;;;31.02;33.09
74627;BME280;63132;52.268;5.192;2023-10-19T05:25:37;98934.03;;;31.36;33.25
74627;BME280;63132;52.268;5.192;2023-10-19T05:28:03;98929.94;;;31.66;32.22
74627;BME280;63132;52.268;5.192;2023-10-19T05:30:28;98934.25;;;31.58;32.37
74627;BME280;63132;52.268;5.192;2023-10-19T05:32:55;98929.53;;;31.43;33.52
74627;BME280;63132;52.268;5.192;2023-10-19T05:35:20;98938.03;;;31.60;33.25
74627;BME280;63132;52.268;5.192;2023-10-19T05:37:49;98938.47;;;31.57;32.61
74627;BME280;63132;52.268;5.192;2023-10-19T05:40:14;98948.72;;;31.23;32.76
74627;BME280;63132;52.268;5.192;2023-10-19T05:42:40;98943.63;;;31.68;32.73
74627;BME280;63132;52.268;5.192;2023-10-19T05:45:05;98951.53;;;31.87;32.17
74627;BME280;63132;52.268;5.192;2023-10-19T05:47:30;98956.03;;;31.80;32.11
74627;BME280;63132;52.268;5.192;2023-10-19T05:49:56;98954.53;;;31.79;32.36
74627;BME280;63132;52.268;5.192;2023-10-19T05:52:21;98961.81;;;32.00;32.38
74627;BME280;63132;52.268;5.192;2023-10-19T05:54:47;98959.28;;;31.67;33.43
74627;BME280;63132;52.268;5.192;2023-10-19T05:57:14;98957.94;;;32.24;31.81
74627;BME280;63132;52.268;5.192;2023-10-19T05:59:40;98955.88;;;31.78;33.14
74627;BME280;63132;52.268;5.192;2023-10-19T06:02:05;98957.75;;;31.66;32.29
74627;BME280;63132;52.268;5.192;2023-10-19T06:04:32;98960.94;;;31.60;33.04
74627;BME280;63132;52.268;5.192;2023-10-19T06:06:57;98954.06;;;32.39;31.94
74627;BME280;63132;52.268;5.192;2023-10-19T06:09:22;98957.78;;;32.22;32.90
74627;BME280;63132;52.268;5.192;2023-10-19T06:11:54;98963.84;;;32.26;31.94
74627;BME280;63132;52.268;5.192;2023-10-19T06:14:20;98955.56;;;32.40;32.21
74627;BME280;63132;52.268;5.192;2023-10-19T06:16:45;98960.69;;;32.32;31.88
74627;BME280;63132;52.268;5.192;2023-10-19T06:19:11;98951.22;;;32.48;31.33
74627;BME280;63132;52.268;5.192;2023-10-19T06:21:36;98950.84;;;32.15;32.31
74627;BME280;63132;52.268;5.192;2023-10-19T06:24:02;98963.91;;;31.89;32.34
74627;BME280;63132;52.268;5.192;2023-10-19T06:26:27;98965.56;;;31.92;31.83
74627;BME280;63132;52.268;5.192;2023-10-19T06:28:53;98963.94;;;32.09;31.94
74627;BME280;63132;52.268;5.192;2023-10-19T06:31:23;98957.66;;;32.39;32.27
74627;BME280;63132;52.268;5.192;2023-10-19T06:33:49;98961.59;;;32.54;31.31
74627;BME280;63132;52.268;5.192;2023-10-19T06:36:14;98962.03;;;32.60;31.97
74627;BME280;63132;52.268;5.192;2023-10-19T06:38:39;98966.88;;;32.67;31.04
74627;BME280;63132;52.268;5.192;2023-10-19T06:41:11;98969.00;;;32.57;30.89
74627;BME280;63132;52.268;5.192;2023-10-19T06:43:38;98972.31;;;33.01;30.81
74627;BME280;63132;52.268;5.192;2023-10-19T06:46:03;98962.34;;;33.02;30.85
74627;BME280;63132;52.268;5.192;2023-10-19T06:48:28;98970.03;;;32.51;30.94
74627;BME280;63132;52.268;5.192;2023-10-19T06:50:54;98958.53;;;33.10;30.51
74627;BME280;63132;52.268;5.192;2023-10-19T06:53:21;98975.47;;;32.96;30.80
74627;BME280;63132;52.268;5.192;2023-10-19T06:55:46;98973.50;;;32.79;30.59
74627;BME280;63132;52.268;5.192;2023-10-19T06:58:12;98987.56;;;32.94;30.43
74627;BME280;63132;52.268;5.192;2023-10-19T07:00:39;98986.91;;;32.76;31.85
74627;BME280;63132;52.268;5.192;2023-10-19T07:03:07;98991.44;;;32.70;31.52
74627;BME280;63132;52.268;5.192;2023-10-19T07:05:33;98996.59;;;32.62;31.32
74627;BME280;63132;52.268;5.192;2023-10-19T07:07:59;98996.59;;;32.42;32.14
74627;BME280;63132;52.268;5.192;2023-10-19T07:10:25;99005.06;;;32.89;30.57
74627;BME280;63132;52.268;5.192;2023-10-19T07:12:52;99010.75;;;33.18;30.73
74627;BME280;63132;52.268;5.192;2023-10-19T07:15:19;99007.59;;;33.14;30.58
74627;BME280;63132;52.268;5.192;2023-10-19T07:17:44;99009.00;;;32.93;30.49
74627;BME280;63132;52.268;5.192;2023-10-19T07:20:10;99012.28;;;32.99;31.25
74627;BME280;63132;52.268;5.192;2023-10-19T07:22:47;99011.69;;;33.11;31.19
74627;BME280;63132;52.268;5.192;2023-10-19T07:25:12;99010.63;;;32.77;31.35
74627;BME280;63132;52.268;5.192;2023-10-19T07:27:38;99013.19;;;33.02;31.01
74627;BME280;63132;52.268;5.192;2023-10-19T07:30:04;99002.94;;;32.89;31.38
74627;BME280;63132;52.268;5.192;2023-10-19T07:32:34;99012.34;;;32.24;33.34
74627;BME280;63132;52.268;5.192;2023-10-19T07:34:59;99009.56;;;32.43;32.94
74627;BME280;63132;52.268;5.192;2023-10-19T07:37:24;99015.44;;;32.55;31.21
74627;BME280;63132;52.268;5.192;2023-10-19T07:39:49;99007.63;;;32.56;31.90
74627;BME280;63132;52.268;5.192;2023-10-19T07:42:17;99016.66;;;32.42;32.50
74627;BME280;63132;52.268;5.192;2023-10-19T07:44:42;99020.25;;;32.33;33.08
74627;BME280;63132;52.268;5.192;2023-10-19T07:47:08;99017.41;;;32.72;32.73
74627;BME280;63132;52.268;5.192;2023-10-19T07:49:35;99018.00;;;32.41;32.90
74627;BME280;63132;52.268;5.192;2023-10-19T07:52:01;99023.03;;;32.04;32.54
74627;BME280;63132;52.268;5.192;2023-10-19T07:54:26;99020.91;;;32.70;32.10
74627;BME280;63132;52.268;5.192;2023-10-19T07:56:52;99021.78;;;32.73;31.90
74627;BME280;63132;52.268;5.192;2023-10-19T07:59:17;99031.75;;;32.82;31.19
74627;BME280;63132;52.268;5.192;2023-10-19T08:01:43;99026.16;;;32.84;31.88
74627;BME280;63132;52.268;5.192;2023-10-19T08:04:08;99023.47;;;32.86;31.92
74627;BME280;63132;52.268;5.192;2023-10-19T08:06:35;99025.59;;;32.95;32.28
74627;BME280;63132;52.268;5.192;2023-10-19T08:09:00;99015.13;;;32.61;32.54
74627;BME280;63132;52.268;5.192;2023-10-19T08:11:25;99010.63;;;32.67;32.82
74627;BME280;63132;52.268;5.192;2023-10-19T08:13:50;99015.16;;;32.99;31.30
74627;BME280;63132;52.268;5.192;2023-10-19T08:16:15;99018.94;;;32.92;31.49
74627;BME280;63132;52.268;5.192;2023-10-19T08:18:41;99018.59;;;33.08;31.45
74627;BME280;63132;52.268;5.192;2023-10-19T08:21:07;99022.41;;;33.10;31.81
74627;BME280;63132;52.268;5.192;2023-10-19T08:23:32;99023.63;;;32.97;30.91
74627;BME280;63132;52.268;5.192;2023-10-19T08:25:57;99022.84;;;32.68;33.28
74627;BME280;63132;52.268;5.192;2023-10-19T08:28:23;99018.66;;;32.88;30.92
74627;BME280;63132;52.268;5.192;2023-10-19T08:30:48;99026.59;;;33.38;31.05
74627;BME280;63132;52.268;5.192;2023-10-19T08:33:25;99023.78;;;33.69;31.25
74627;BME280;63132;52.268;5.192;2023-10-19T08:35:51;99028.47;;;33.65;30.73
74627;BME280;63132;52.268;5.192;2023-10-19T08:38:17;99026.09;;;33.51;31.07
74627;BME280;63132;52.268;5.192;2023-10-19T08:40:42;99025.81;;;33.47;31.48
74627;BME280;63132;52.268;5.192;2023-10-19T08:43:07;99028.53;;;33.36;31.70
74627;BME280;63132;52.268;5.192;2023-10-19T08:45:38;99026.28;;;33.34;32.13
74627;BME280;63132;52.268;5.192;2023-10-19T08:48:03;99022.28;;;33.58;31.01
74627;BME280;63132;52.268;5.192;2023-10-19T08:50:30;99021.47;;;33.77;31.89
74627;BME280;63132;52.268;5.192;2023-10-19T08:52:56;99013.63;;;33.78;31.34
74627;BME280;63132;52.268;5.192;2023-10-19T08:55:22;99015.41;;;33.83;31.58
74627;BME280;63132;52.268;5.192;2023-10-19T08:57:50;99011.63;;;33.80;31.31
74627;BME280;63132;52.268;5.192;2023-10-19T09:00:16;99008.63;;;33.78;31.73
74627;BME280;63132;52.268;5.192;2023-10-19T09:02:47;99010.88;;;34.11;31.14
74627;BME280;63132;52.268;5.192;2023-10-19T09:05:13;99006.94;;;34.16;30.98
74627;BME280;63132;52.268;5.192;2023-10-19T09:07:51;99005.03;;;32.98;32.41
74627;BME280;63132;52.268;5.192;2023-10-19T09:10:23;99013.28;;;33.52;32.41
74627;BME280;63132;52.268;5.192;2023-10-19T09:15:26;98999.06;;;34.17;30.53
74627;BME280;63132;52.268;5.192;2023-10-19T09:17:51;99001.63;;;33.50;32.41
74627;BME280;63132;52.268;5.192;2023-10-19T09:20:20;98997.91;;;33.38;32.23
74627;BME280;63132;52.268;5.192;2023-10-19T09:22:52;99000.88;;;33.50;32.01
74627;BME280;63132;52.268;5.192;2023-10-19T09:25:17;99008.22;;;34.03;32.25
74627;BME280;63132;52.268;5.192;2023-10-19T09:27:43;99002.28;;;34.32;31.28
74627;BME280;63132;52.268;5.192;2023-10-19T09:30:08;99005.13;;;34.42;30.74
74627;BME280;63132;52.268;5.192;2023-10-19T09:32:35;99003.69;;;33.69;32.30
74627;BME280;63132;52.268;5.192;2023-10-19T09:35:01;99001.31;;;34.82;30.13
74627;BME280;63132;52.268;5.192;2023-10-19T09:37:27;99007.56;;;34.36;30.71
74627;BME280;63132;52.268;5.192;2023-10-19T09:39:54;99009.00;;;34.68;32.10
74627;BME280;63132;52.268;5.192;2023-10-19T09:42:19;99008.66;;;34.95;30.52
74627;BME280;63132;52.268;5.192;2023-10-19T09:44:48;99000.81;;;34.86;31.09
74627;BME280;63132;52.268;5.192;2023-10-19T09:49:50;98996.34;;;35.28;30.64
74627;BME280;63132;52.268;5.192;2023-10-19T09:52:15;98999.75;;;35.36;30.30
74627;BME280;63132;52.268;5.192;2023-10-19T09:54:52;98995.28;;;35.44;30.17
74627;BME280;63132;52.268;5.192;2023-10-19T09:57:22;98990.41;;;35.47;30.33
74627;BME280;63132;52.268;5.192;2023-10-19T10:00:02;98979.78;;;35.61;29.73
74627;BME280;63132;52.268;5.192;2023-10-19T10:02:38;98989.78;;;34.49;31.37
74627;BME280;63132;52.268;5.192;2023-10-19T10:05:03;98976.53;;;34.77;30.10
74627;BME280;63132;52.268;5.192;2023-10-19T10:07:29;98981.38;;;35.53;30.25
74627;BME280;63132;52.268;5.192;2023-10-19T10:09:55;98974.25;;;34.21;31.67
74627;BME280;63132;52.268;5.192;2023-10-19T10:12:21;98970.94;;;35.12;30.44
74627;BME280;63132;52.268;5.192;2023-10-19T10:14:54;98980.53;;;35.50;30.30
74627;BME280;63132;52.268;5.192;2023-10-19T10:17:21;98990.91;;;35.67;29.64
74627;BME280;63132;52.268;5.192;2023-10-19T10:19:47;98977.25;;;35.67;30.13
74627;BME280;63132;52.268;5.192;2023-10-19T10:22:13;98981.22;;;34.39;32.02
74627;BME280;63132;52.268;5.192;2023-10-19T10:24:40;98986.97;;;34.61;31.08
74627;BME280;63132;52.268;5.192;2023-10-19T10:27:06;98978.56;;;35.19;29.91
74627;BME280;63132;52.268;5.192;2023-10-19T10:29:31;98983.66;;;35.54;30.38
74627;BME280;63132;52.268;5.192;2023-10-19T10:31:56;98990.31;;;35.12;29.77
74627;BME280;63132;52.268;5.192;2023-10-19T10:37:07;98972.47;;;34.16;32.15
74627;BME280;63132;52.268;5.192;2023-10-19T10:39:33;98984.44;;;35.10;30.53
74627;BME280;63132;52.268;5.192;2023-10-19T10:42:02;98965.88;;;34.04;31.73
74627;BME280;63132;52.268;5.192;2023-10-19T10:47:04;98960.34;;;34.18;31.25
74627;BME280;63132;52.268;5.192;2023-10-19T10:49:31;98960.72;;;34.88;30.77
74627;BME280;63132;52.268;5.192;2023-10-19T10:51:56;98964.06;;;35.29;30.40
74627;BME280;63132;52.268;5.192;2023-10-19T10:54:22;98973.84;;;35.36;30.90
74627;BME280;63132;52.268;5.192;2023-10-19T10:56:47;98963.75;;;35.58;30.44
74627;BME280;63132;52.268;5.192;2023-10-19T10:59:13;98964.78;;;35.06;30.45
74627;BME280;63132;52.268;5.192;2023-10-19T11:01:38;98958.06;;;35.25;30.67
74627;BME280;63132;52.268;5.192;2023-10-19T11:04:10;98948.53;;;34.78;30.88
74627;BME280;63132;52.268;5.192;2023-10-19T11:06:46;98940.78;;;35.13;30.46
74627;BME280;63132;52.268;5.192;2023-10-19T11:09:11;98923.94;;;35.43;30.84
74627;BME280;63132;52.268;5.192;2023-10-19T11:11:37;98932.94;;;35.61;29.51
74627;BME280;63132;52.268;5.192;2023-10-19T11:14:09;98947.44;;;36.21;29.63
74627;BME280;63132;52.268;5.192;2023-10-19T11:16:36;98938.16;;;36.60;29.20
74627;BME280;63132;52.268;5.192;2023-10-19T11:19:02;98942.00;;;36.27;29.11
74627;BME280;63132;52.268;5.192;2023-10-19T11:21:27;98935.28;;;36.23;29.20
74627;BME280;63132;52.268;5.192;2023-10-19T11:23:53;98938.91;;;36.23;29.52
74627;BME280;63132;52.268;5.192;2023-10-19T11:26:21;98939.19;;;36.04;29.66
74627;BME280;63132;52.268;5.192;2023-10-19T11:28:47;98953.94;;;36.22;29.31
74627;BME280;63132;52.268;5.192;2023-10-19T11:31:21;98948.78;;;36.44;28.88
74627;BME280;63132;52.268;5.192;2023-10-19T11:33:47;98940.59;;;35.79;30.40
74627;BME280;63132;52.268;5.192;2023-10-19T11:36:19;98941.84;;;36.49;29.48
74627;BME280;63132;52.268;5.192;2023-10-19T11:38:46;98951.59;;;34.37;31.74
74627;BME280;63132;52.268;5.192;2023-10-19T11:41:12;98941.22;;;32.69;34.46
74627;BME280;63132;52.268;5.192;2023-10-19T11:43:38;98953.94;;;35.28;31.04
74627;BME280;63132;52.268;5.192;2023-10-19T11:46:03;98947.44;;;36.10;29.03
74627;BME280;63132;52.268;5.192;2023-10-19T11:48:35;98943.16;;;36.22;29.02
74627;BME280;63132;52.268;5.192;2023-10-19T11:51:01;98937.63;;;36.38;29.64
74627;BME280;63132;52.268;5.192;2023-10-19T11:53:29;98935.22;;;36.46;29.41
74627;BME280;63132;52.268;5.192;2023-10-19T11:55:58;98923.28;;;36.52;28.79
74627;BME280;63132;52.268;5.192;2023-10-19T11:58:23;98925.50;;;36.91;27.77
74627;BME280;63132;52.268;5.192;2023-10-19T12:00:48;98921.25;;;36.05;29.79
74627;BME280;63132;52.268;5.192;2023-10-19T12:03:13;98914.91;;;35.95;29.90
74627;BME280;63132;52.268;5.192;2023-10-19T12:05:39;98907.66;;;37.47;28.80
74627;BME280;63132;52.268;5.192;2023-10-19T12:08:07;98910.09;;;36.86;29.29
74627;BME280;63132;52.268;5.192;2023-10-19T12:10:32;98910.81;;;37.12;28.08
74627;BME280;63132;52.268;5.192;2023-10-19T12:13:00;98902.19;;;37.39;28.16
74627;BME280;63132;52.268;5.192;2023-10-19T12:15:26;98912.81;;;37.09;27.72
74627;BME280;63132;52.268;5.192;2023-10-19T12:17:52;98910.47;;;37.59;27.85
74627;BME280;63132;52.268;5.192;2023-10-19T12:20:19;98906.56;;;37.27;28.32
74627;BME280;63132;52.268;5.192;2023-10-19T12:22:46;98906.56;;;36.62;29.07
74627;BME280;63132;52.268;5.192;2023-10-19T12:25:13;98901.91;;;36.31;28.85
74627;BME280;63132;52.268;5.192;2023-10-19T12:27:38;98900.09;;;36.50;29.60
74627;BME280;63132;52.268;5.192;2023-10-19T12:30:03;98890.16;;;36.78;28.35
74627;BME280;63132;52.268;5.192;2023-10-19T12:32:38;98892.13;;;36.37;29.08
74627;BME280;63132;52.268;5.192;2023-10-19T12:35:03;98889.66;;;36.82;28.77
74627;BME280;63132;52.268;5.192;2023-10-19T12:37:36;98883.84;;;36.68;28.69
74627;BME280;63132;52.268;5.192;2023-10-19T12:40:06;98877.81;;;36.64;29.19
74627;BME280;63132;52.268;5.192;2023-10-19T12:42:51;98874.47;;;36.56;28.92
74627;BME280;63132;52.268;5.192;2023-10-19T12:45:17;98875.19;;;37.07;28.33
74627;BME280;63132;52.268;5.192;2023-10-19T12:47:44;98869.19;;;36.90;28.63
74627;BME280;63132;52.268;5.192;2023-10-19T12:50:09;98864.00;;;36.74;28.78
74627;BME280;63132;52.268;5.192;2023-10-19T12:52:35;98867.75;;;36.51;29.74
74627;BME280;63132;52.268;5.192;2023-10-19T12:55:02;98865.34;;;36.99;28.76
74627;BME280;63132;52.268;5.192;2023-10-19T12:57:29;98861.84;;;36.75;28.89
74627;BME280;63132;52.268;5.192;2023-10-19T12:59:54;98860.41;;;36.62;28.87
74627;BME280;63132;52.268;5.192;2023-10-19T13:02:19;98856.91;;;36.89;28.48
74627;BME280;63132;52.268;5.192;2023-10-19T13:04:45;98863.97;;;35.16;30.64
74627;BME280;63132;52.268;5.192;2023-10-19T13:07:11;98855.72;;;36.18;28.86
74627;BME280;63132;52.268;5.192;2023-10-19T13:09:37;98851.75;;;36.62;28.78
74627;BME280;63132;52.268;5.192;2023-10-19T13:12:02;98853.91;;;35.99;29.20
74627;BME280;63132;52.268;5.192;2023-10-19T13:14:32;98858.34;;;36.51;29.01